sensor_id;sensor_type;location;lat;lon;timestamp;P1;durP1;ratioP1;P2;durP2;ratioP2
17384;SDS011;8810;48.680;8.894;2022-12-18T00:00:44;27.13;;;9.87;;
17384;SDS011;8810;48.680;8.894;2022-12-18T00:03:13;19.83;;;8.77;;
17384;SDS011;8810;48.680;8.894;2022-12-18T00:05:45;25.00;;;9.27;;
17384;SDS011;8810;48.680;8.894;2022-12-18T00:08:13;26.87;;;8.20;;
17384;SDS011;8810;48.680;8.894;2022-12-18T00:10:41;23.10;;;7.93;;
17384;SDS011;8810;48.680;8.894;2022-12-18T00:13:09;20.00;;;7.77;;
17384;SDS011;8810;48.680;8.894;2022-12-18T00:15:36;21.53;;;6.60;;
17384;SDS011;8810;48.680;8.894;2022-12-18T00:18:04;16.00;;;6.10;;
17384;SDS011;8810;48.680;8.894;2022-12-18T00:20:32;22.53;;;8.87;;
17384;SDS011;8810;48.680;8.894;2022-12-18T00:23:02;24.03;;;8.43;;
17384;SDS011;8810;48.680;8.894;2022-12-18T00:25:29;22.07;;;8.07;;
17384;SDS011;8810;48.680;8.894;2022-12-18T00:27:57;18.73;;;7.83;;
17384;SDS011;8810;48.680;8.894;2022-12-18T00:30:24;20.53;;;7.87;;
17384;SDS011;8810;48.680;8.894;2022-12-18T00:32:51;21.47;;;7.97;;
17384;SDS011;8810;48.680;8.894;2022-12-18T00:35:18;20.67;;;8.43;;
17384;SDS011;8810;48.680;8.894;2022-12-18T00:37:44;20.30;;;7.10;;
17384;SDS011;8810;48.680;8.894;2022-12-18T00:40:11;27.70;;;7.83;;
17384;SDS011;8810;48.680;8.894;2022-12-18T00:42:38;23.97;;;8.37;;
17384;SDS011;8810;48.680;8.894;2022-12-18T00:45:24;20.93;;;6.97;;
17384;SDS011;8810;48.680;8.894;2022-12-18T00:47:51;15.50;;;6.07;;
17384;SDS011;8810;48.680;8.894;2022-12-18T00:50:18;17.90;;;7.03;;
17384;SDS011;8810;48.680;8.894;2022-12-18T00:52:46;17.97;;;7.57;;
17384;SDS011;8810;48.680;8.894;2022-12-18T00:55:13;14.83;;;5.93;;
17384;SDS011;8810;48.680;8.894;2022-12-18T00:57:40;19.97;;;7.37;;
17384;SDS011;8810;48.680;8.894;2022-12-18T01:00:08;20.40;;;6.63;;
17384;SDS011;8810;48.680;8.894;2022-12-18T01:02:38;18.53;;;6.53;;
17384;SDS011;8810;48.680;8.894;2022-12-18T01:05:05;28.27;;;7.67;;
17384;SDS011;8810;48.680;8.894;2022-12-18T01:07:33;21.97;;;7.83;;
17384;SDS011;8810;48.680;8.894;2022-12-18T01:09:59;23.60;;;7.77;;
17384;SDS011;8810;48.680;8.894;2022-12-18T01:12:26;26.43;;;8.50;;
17384;SDS011;8810;48.680;8.894;2022-12-18T01:14:53;20.03;;;8.20;;
17384;SDS011;8810;48.680;8.894;2022-12-18T01:17:20;25.60;;;8.83;;
17384;SDS011;8810;48.680;8.894;2022-12-18T01:19:48;25.00;;;7.97;;
17384;SDS011;8810;48.680;8.894;2022-12-18T01:22:15;28.27;;;8.37;;
17384;SDS011;8810;48.680;8.894;2022-12-18T01:24:42;24.33;;;7.57;;
17384;SDS011;8810;48.680;8.894;2022-12-18T01:27:09;19.73;;;7.43;;
17384;SDS011;8810;48.680;8.894;2022-12-18T01:29:35;24.43;;;7.17;;
17384;SDS011;8810;48.680;8.894;2022-12-18T01:32:02;19.53;;;7.03;;
17384;SDS011;8810;48.680;8.894;2022-12-18T01:34:29;20.83;;;7.90;;
17384;SDS011;8810;48.680;8.894;2022-12-18T01:36:58;20.13;;;6.90;;
17384;SDS011;8810;48.680;8.894;2022-12-18T01:39:24;27.20;;;8.93;;
17384;SDS011;8810;48.680;8.894;2022-12-18T01:41:51;23.43;;;8.23;;
17384;SDS011;8810;48.680;8.894;2022-12-18T01:47:21;23.53;;;7.93;;
17384;SDS011;8810;48.680;8.894;2022-12-18T01:49:51;15.77;;;6.83;;
17384;SDS011;8810;48.680;8.894;2022-12-18T01:52:20;18.50;;;7.53;;
17384;SDS011;8810;48.680;8.894;2022-12-18T01:54:48;23.47;;;7.60;;
17384;SDS011;8810;48.680;8.894;2022-12-18T01:57:16;21.40;;;7.60;;
17384;SDS011;8810;48.680;8.894;2022-12-18T01:59:44;28.00;;;8.20;;
17384;SDS011;8810;48.680;8.894;2022-12-18T02:02:15;26.90;;;7.60;;
17384;SDS011;8810;48.680;8.894;2022-12-18T02:04:43;19.33;;;7.77;;
17384;SDS011;8810;48.680;8.894;2022-12-18T02:07:10;20.80;;;6.97;;
17384;SDS011;8810;48.680;8.894;2022-12-18T02:09:45;16.17;;;6.73;;
17384;SDS011;8810;48.680;8.894;2022-12-18T02:12:16;20.90;;;7.67;;
17384;SDS011;8810;48.680;8.894;2022-12-18T02:14:48;23.10;;;7.77;;
17384;SDS011;8810;48.680;8.894;2022-12-18T02:17:21;18.97;;;6.50;;
17384;SDS011;8810;48.680;8.894;2022-12-18T02:19:58;22.30;;;6.90;;
17384;SDS011;8810;48.680;8.894;2022-12-18T02:22:34;20.10;;;7.50;;
17384;SDS011;8810;48.680;8.894;2022-12-18T02:25:16;21.47;;;7.53;;
17384;SDS011;8810;48.680;8.894;2022-12-18T02:27:55;18.90;;;7.43;;
17384;SDS011;8810;48.680;8.894;2022-12-18T02:30:25;19.67;;;7.53;;
17384;SDS011;8810;48.680;8.894;2022-12-18T02:32:55;23.40;;;7.40;;
17384;SDS011;8810;48.680;8.894;2022-12-18T02:35:24;23.20;;;7.53;;
17384;SDS011;8810;48.680;8.894;2022-12-18T02:37:54;18.50;;;6.10;;
17384;SDS011;8810;48.680;8.894;2022-12-18T02:40:22;25.93;;;7.83;;
17384;SDS011;8810;48.680;8.894;2022-12-18T02:42:52;20.33;;;8.13;;
17384;SDS011;8810;48.680;8.894;2022-12-18T02:45:20;24.47;;;8.00;;
17384;SDS011;8810;48.680;8.894;2022-12-18T02:47:47;16.83;;;7.90;;
17384;SDS011;8810;48.680;8.894;2022-12-18T02:50:17;19.67;;;7.27;;
17384;SDS011;8810;48.680;8.894;2022-12-18T02:52:50;24.80;;;6.83;;
17384;SDS011;8810;48.680;8.894;2022-12-18T02:55:28;21.80;;;7.77;;
17384;SDS011;8810;48.680;8.894;2022-12-18T02:58:07;17.17;;;6.63;;
17384;SDS011;8810;48.680;8.894;2022-12-18T03:00:43;21.87;;;7.90;;
17384;SDS011;8810;48.680;8.894;2022-12-18T03:03:16;19.47;;;7.07;;
17384;SDS011;8810;48.680;8.894;2022-12-18T03:05:49;23.57;;;8.07;;
17384;SDS011;8810;48.680;8.894;2022-12-18T03:08:20;18.20;;;7.07;;
17384;SDS011;8810;48.680;8.894;2022-12-18T03:10:51;21.73;;;8.87;;
17384;SDS011;8810;48.680;8.894;2022-12-18T03:13:25;26.90;;;7.90;;
17384;SDS011;8810;48.680;8.894;2022-12-18T03:15:59;27.77;;;8.80;;
17384;SDS011;8810;48.680;8.894;2022-12-18T03:18:29;27.03;;;9.23;;
17384;SDS011;8810;48.680;8.894;2022-12-18T03:21:00;26.43;;;7.83;;
17384;SDS011;8810;48.680;8.894;2022-12-18T03:23:32;27.50;;;9.20;;
17384;SDS011;8810;48.680;8.894;2022-12-18T03:26:06;23.90;;;8.40;;
17384;SDS011;8810;48.680;8.894;2022-12-18T03:28:37;26.00;;;9.30;;
17384;SDS011;8810;48.680;8.894;2022-12-18T03:31:10;28.10;;;8.30;;
17384;SDS011;8810;48.680;8.894;2022-12-18T03:33:39;16.13;;;7.60;;
17384;SDS011;8810;48.680;8.894;2022-12-18T03:36:11;27.07;;;9.40;;
17384;SDS011;8810;48.680;8.894;2022-12-18T03:38:38;25.03;;;9.73;;
17384;SDS011;8810;48.680;8.894;2022-12-18T03:41:06;24.03;;;8.17;;
17384;SDS011;8810;48.680;8.894;2022-12-18T03:43:39;28.80;;;8.37;;
17384;SDS011;8810;48.680;8.894;2022-12-18T03:46:17;21.37;;;8.70;;
17384;SDS011;8810;48.680;8.894;2022-12-18T03:48:51;24.67;;;8.17;;
17384;SDS011;8810;48.680;8.894;2022-12-18T03:51:23;30.27;;;9.07;;
17384;SDS011;8810;48.680;8.894;2022-12-18T03:53:55;28.77;;;10.83;;
17384;SDS011;8810;48.680;8.894;2022-12-18T03:56:25;22.33;;;9.50;;
17384;SDS011;8810;48.680;8.894;2022-12-18T03:58:54;26.43;;;8.67;;
17384;SDS011;8810;48.680;8.894;2022-12-18T04:01:25;26.57;;;9.03;;
17384;SDS011;8810;48.680;8.894;2022-12-18T04:03:56;30.90;;;10.00;;
17384;SDS011;8810;48.680;8.894;2022-12-18T04:06:26;22.70;;;9.20;;
17384;SDS011;8810;48.680;8.894;2022-12-18T04:08:54;28.80;;;11.40;;
17384;SDS011;8810;48.680;8.894;2022-12-18T04:11:21;28.73;;;10.83;;
17384;SDS011;8810;48.680;8.894;2022-12-18T04:13:47;21.97;;;8.83;;
17384;SDS011;8810;48.680;8.894;2022-12-18T04:16:14;31.97;;;10.60;;
17384;SDS011;8810;48.680;8.894;2022-12-18T04:18:42;25.93;;;9.20;;
17384;SDS011;8810;48.680;8.894;2022-12-18T04:21:09;34.10;;;11.00;;
17384;SDS011;8810;48.680;8.894;2022-12-18T04:23:36;27.10;;;9.47;;
17384;SDS011;8810;48.680;8.894;2022-12-18T04:26:03;29.47;;;9.27;;
17384;SDS011;8810;48.680;8.894;2022-12-18T04:28:30;27.03;;;8.27;;
17384;SDS011;8810;48.680;8.894;2022-12-18T04:30:57;26.73;;;9.27;;
17384;SDS011;8810;48.680;8.894;2022-12-18T04:33:23;24.27;;;9.67;;
17384;SDS011;8810;48.680;8.894;2022-12-18T04:35:52;30.07;;;9.40;;
17384;SDS011;8810;48.680;8.894;2022-12-18T04:38:18;29.47;;;10.17;;
17384;SDS011;8810;48.680;8.894;2022-12-18T04:40:45;26.90;;;9.97;;
17384;SDS011;8810;48.680;8.894;2022-12-18T04:43:12;28.80;;;8.80;;
17384;SDS011;8810;48.680;8.894;2022-12-18T04:45:39;24.13;;;8.17;;
17384;SDS011;8810;48.680;8.894;2022-12-18T04:48:06;26.47;;;9.57;;
17384;SDS011;8810;48.680;8.894;2022-12-18T04:50:33;26.90;;;9.57;;
17384;SDS011;8810;48.680;8.894;2022-12-18T04:53:01;22.23;;;8.53;;
17384;SDS011;8810;48.680;8.894;2022-12-18T04:55:27;30.93;;;9.83;;
17384;SDS011;8810;48.680;8.894;2022-12-18T04:57:54;30.20;;;10.30;;
17384;SDS011;8810;48.680;8.894;2022-12-18T05:00:21;32.93;;;12.07;;
17384;SDS011;8810;48.680;8.894;2022-12-18T05:02:48;28.43;;;10.37;;
17384;SDS011;8810;48.680;8.894;2022-12-18T05:05:15;31.53;;;11.10;;
17384;SDS011;8810;48.680;8.894;2022-12-18T05:07:42;27.13;;;8.20;;
17384;SDS011;8810;48.680;8.894;2022-12-18T05:10:10;28.97;;;9.57;;
17384;SDS011;8810;48.680;8.894;2022-12-18T05:12:37;31.40;;;9.20;;
17384;SDS011;8810;48.680;8.894;2022-12-18T05:15:22;19.27;;;8.53;;
17384;SDS011;8810;48.680;8.894;2022-12-18T05:17:50;25.20;;;9.57;;
17384;SDS011;8810;48.680;8.894;2022-12-18T05:20:16;29.80;;;9.53;;
17384;SDS011;8810;48.680;8.894;2022-12-18T05:22:43;28.27;;;9.27;;
17384;SDS011;8810;48.680;8.894;2022-12-18T05:25:12;23.73;;;8.77;;
17384;SDS011;8810;48.680;8.894;2022-12-18T05:27:38;23.00;;;7.70;;
17384;SDS011;8810;48.680;8.894;2022-12-18T05:30:06;20.30;;;8.60;;
17384;SDS011;8810;48.680;8.894;2022-12-18T05:32:33;31.00;;;9.03;;
17384;SDS011;8810;48.680;8.894;2022-12-18T05:35:00;32.23;;;10.23;;
17384;SDS011;8810;48.680;8.894;2022-12-18T05:37:27;26.87;;;8.20;;
17384;SDS011;8810;48.680;8.894;2022-12-18T05:39:54;28.50;;;10.23;;
17384;SDS011;8810;48.680;8.894;2022-12-18T05:42:22;37.03;;;9.83;;
17384;SDS011;8810;48.680;8.894;2022-12-18T05:44:49;28.30;;;10.30;;
17384;SDS011;8810;48.680;8.894;2022-12-18T05:47:16;28.30;;;9.80;;
17384;SDS011;8810;48.680;8.894;2022-12-18T05:49:43;25.03;;;9.50;;
17384;SDS011;8810;48.680;8.894;2022-12-18T05:52:09;26.97;;;11.07;;
17384;SDS011;8810;48.680;8.894;2022-12-18T05:54:36;29.47;;;10.17;;
17384;SDS011;8810;48.680;8.894;2022-12-18T05:57:03;25.10;;;9.17;;
17384;SDS011;8810;48.680;8.894;2022-12-18T05:59:32;28.73;;;10.00;;
17384;SDS011;8810;48.680;8.894;2022-12-18T06:01:58;22.93;;;9.17;;
17384;SDS011;8810;48.680;8.894;2022-12-18T06:04:26;29.27;;;9.47;;
17384;SDS011;8810;48.680;8.894;2022-12-18T06:06:55;25.43;;;9.87;;
17384;SDS011;8810;48.680;8.894;2022-12-18T06:09:22;26.77;;;9.80;;
17384;SDS011;8810;48.680;8.894;2022-12-18T06:11:50;24.83;;;9.60;;
17384;SDS011;8810;48.680;8.894;2022-12-18T06:14:18;28.40;;;9.67;;
17384;SDS011;8810;48.680;8.894;2022-12-18T06:16:46;23.00;;;9.10;;
17384;SDS011;8810;48.680;8.894;2022-12-18T06:19:14;24.17;;;9.40;;
17384;SDS011;8810;48.680;8.894;2022-12-18T06:21:42;25.67;;;9.90;;
17384;SDS011;8810;48.680;8.894;2022-12-18T06:24:08;23.83;;;8.60;;
17384;SDS011;8810;48.680;8.894;2022-12-18T06:26:36;28.27;;;10.17;;
17384;SDS011;8810;48.680;8.894;2022-12-18T06:29:04;24.17;;;9.30;;
17384;SDS011;8810;48.680;8.894;2022-12-18T06:31:31;23.93;;;8.93;;
17384;SDS011;8810;48.680;8.894;2022-12-18T06:33:59;24.40;;;9.03;;
17384;SDS011;8810;48.680;8.894;2022-12-18T06:36:27;25.00;;;8.87;;
17384;SDS011;8810;48.680;8.894;2022-12-18T06:38:57;24.97;;;8.93;;
17384;SDS011;8810;48.680;8.894;2022-12-18T06:41:24;29.77;;;9.97;;
17384;SDS011;8810;48.680;8.894;2022-12-18T06:43:51;26.93;;;9.47;;
17384;SDS011;8810;48.680;8.894;2022-12-18T06:46:17;23.37;;;9.10;;
17384;SDS011;8810;48.680;8.894;2022-12-18T06:48:46;23.33;;;9.97;;
17384;SDS011;8810;48.680;8.894;2022-12-18T06:51:16;19.73;;;8.43;;
17384;SDS011;8810;48.680;8.894;2022-12-18T06:53:44;23.17;;;9.37;;
17384;SDS011;8810;48.680;8.894;2022-12-18T06:56:11;32.90;;;11.52;;
17384;SDS011;8810;48.680;8.894;2022-12-18T06:58:38;28.60;;;10.13;;
17384;SDS011;8810;48.680;8.894;2022-12-18T07:01:06;31.17;;;10.70;;
17384;SDS011;8810;48.680;8.894;2022-12-18T07:03:34;27.37;;;10.63;;
17384;SDS011;8810;48.680;8.894;2022-12-18T07:06:01;20.37;;;8.97;;
17384;SDS011;8810;48.680;8.894;2022-12-18T07:08:30;27.90;;;9.57;;
17384;SDS011;8810;48.680;8.894;2022-12-18T07:10:57;35.22;;;14.90;;
17384;SDS011;8810;48.680;8.894;2022-12-18T07:13:24;30.37;;;10.47;;
17384;SDS011;8810;48.680;8.894;2022-12-18T07:15:51;27.57;;;10.40;;
17384;SDS011;8810;48.680;8.894;2022-12-18T07:18:18;33.77;;;9.37;;
17384;SDS011;8810;48.680;8.894;2022-12-18T07:20:45;28.27;;;9.87;;
17384;SDS011;8810;48.680;8.894;2022-12-18T07:23:12;22.13;;;8.47;;
17384;SDS011;8810;48.680;8.894;2022-12-18T07:25:40;24.83;;;8.53;;
17384;SDS011;8810;48.680;8.894;2022-12-18T07:28:06;25.33;;;7.83;;
17384;SDS011;8810;48.680;8.894;2022-12-18T07:30:33;26.80;;;9.03;;
17384;SDS011;8810;48.680;8.894;2022-12-18T07:33:03;26.43;;;10.33;;
17384;SDS011;8810;48.680;8.894;2022-12-18T07:35:30;19.50;;;8.10;;
17384;SDS011;8810;48.680;8.894;2022-12-18T07:37:56;26.03;;;9.07;;
17384;SDS011;8810;48.680;8.894;2022-12-18T07:40:26;25.90;;;9.30;;
17384;SDS011;8810;48.680;8.894;2022-12-18T07:42:54;25.53;;;10.17;;
17384;SDS011;8810;48.680;8.894;2022-12-18T07:45:20;25.00;;;10.07;;
17384;SDS011;8810;48.680;8.894;2022-12-18T07:47:47;23.73;;;9.53;;
17384;SDS011;8810;48.680;8.894;2022-12-18T07:50:14;27.80;;;10.47;;
17384;SDS011;8810;48.680;8.894;2022-12-18T07:52:41;45.00;;;12.27;;
17384;SDS011;8810;48.680;8.894;2022-12-18T07:55:08;27.77;;;10.47;;
17384;SDS011;8810;48.680;8.894;2022-12-18T07:57:35;31.37;;;10.30;;
17384;SDS011;8810;48.680;8.894;2022-12-18T08:00:03;24.67;;;8.73;;
17384;SDS011;8810;48.680;8.894;2022-12-18T08:02:31;32.37;;;10.17;;
17384;SDS011;8810;48.680;8.894;2022-12-18T08:04:58;31.17;;;10.40;;
17384;SDS011;8810;48.680;8.894;2022-12-18T08:07:25;32.80;;;10.17;;
17384;SDS011;8810;48.680;8.894;2022-12-18T08:09:52;30.60;;;10.90;;
17384;SDS011;8810;48.680;8.894;2022-12-18T08:12:18;31.40;;;10.70;;
17384;SDS011;8810;48.680;8.894;2022-12-18T08:14:45;31.37;;;10.73;;
17384;SDS011;8810;48.680;8.894;2022-12-18T08:17:13;33.83;;;10.33;;
17384;SDS011;8810;48.680;8.894;2022-12-18T08:19:40;34.97;;;10.90;;
17384;SDS011;8810;48.680;8.894;2022-12-18T08:22:07;36.30;;;12.33;;
17384;SDS011;8810;48.680;8.894;2022-12-18T08:24:34;30.23;;;11.73;;
17384;SDS011;8810;48.680;8.894;2022-12-18T08:27:00;35.23;;;11.47;;
17384;SDS011;8810;48.680;8.894;2022-12-18T08:29:27;42.43;;;13.10;;
17384;SDS011;8810;48.680;8.894;2022-12-18T08:31:55;34.10;;;11.83;;
17384;SDS011;8810;48.680;8.894;2022-12-18T08:34:23;38.77;;;12.13;;
17384;SDS011;8810;48.680;8.894;2022-12-18T08:36:50;32.40;;;11.50;;
17384;SDS011;8810;48.680;8.894;2022-12-18T08:39:17;25.83;;;10.60;;
17384;SDS011;8810;48.680;8.894;2022-12-18T08:41:43;34.17;;;10.53;;
17384;SDS011;8810;48.680;8.894;2022-12-18T08:44:31;38.17;;;12.47;;
17384;SDS011;8810;48.680;8.894;2022-12-18T08:47:03;36.50;;;12.33;;
17384;SDS011;8810;48.680;8.894;2022-12-18T08:49:31;47.10;;;15.33;;
17384;SDS011;8810;48.680;8.894;2022-12-18T08:51:58;33.80;;;12.83;;
17384;SDS011;8810;48.680;8.894;2022-12-18T08:54:26;36.57;;;13.03;;
17384;SDS011;8810;48.680;8.894;2022-12-18T08:56:54;44.10;;;16.07;;
17384;SDS011;8810;48.680;8.894;2022-12-18T08:59:20;41.10;;;16.43;;
17384;SDS011;8810;48.680;8.894;2022-12-18T09:01:48;42.80;;;16.30;;
17384;SDS011;8810;48.680;8.894;2022-12-18T09:04:15;40.57;;;15.57;;
17384;SDS011;8810;48.680;8.894;2022-12-18T09:06:43;35.33;;;14.90;;
17384;SDS011;8810;48.680;8.894;2022-12-18T09:09:10;37.47;;;15.30;;
17384;SDS011;8810;48.680;8.894;2022-12-18T09:11:37;41.57;;;16.17;;
17384;SDS011;8810;48.680;8.894;2022-12-18T09:14:04;34.30;;;15.00;;
17384;SDS011;8810;48.680;8.894;2022-12-18T09:16:32;33.90;;;11.77;;
17384;SDS011;8810;48.680;8.894;2022-12-18T09:19:00;34.83;;;14.13;;
17384;SDS011;8810;48.680;8.894;2022-12-18T09:21:28;41.33;;;17.23;;
17384;SDS011;8810;48.680;8.894;2022-12-18T09:23:57;45.60;;;19.17;;
17384;SDS011;8810;48.680;8.894;2022-12-18T09:26:24;45.50;;;18.37;;
17384;SDS011;8810;48.680;8.894;2022-12-18T09:28:52;42.27;;;17.10;;
17384;SDS011;8810;48.680;8.894;2022-12-18T09:31:21;39.30;;;16.17;;
17384;SDS011;8810;48.680;8.894;2022-12-18T09:33:49;44.27;;;17.23;;
17384;SDS011;8810;48.680;8.894;2022-12-18T09:36:16;39.83;;;16.23;;
17384;SDS011;8810;48.680;8.894;2022-12-18T09:38:44;38.17;;;15.13;;
17384;SDS011;8810;48.680;8.894;2022-12-18T09:41:17;39.40;;;16.17;;
17384;SDS011;8810;48.680;8.894;2022-12-18T09:44:10;30.83;;;12.20;;
17384;SDS011;8810;48.680;8.894;2022-12-18T09:46:46;26.20;;;11.27;;
17384;SDS011;8810;48.680;8.894;2022-12-18T09:49:17;22.03;;;10.63;;
17384;SDS011;8810;48.680;8.894;2022-12-18T09:51:49;28.43;;;11.97;;
17384;SDS011;8810;48.680;8.894;2022-12-18T09:54:20;27.43;;;11.17;;
17384;SDS011;8810;48.680;8.894;2022-12-18T09:56:50;28.07;;;12.60;;
17384;SDS011;8810;48.680;8.894;2022-12-18T09:59:18;25.40;;;10.53;;
17384;SDS011;8810;48.680;8.894;2022-12-18T10:01:49;23.40;;;11.23;;
17384;SDS011;8810;48.680;8.894;2022-12-18T10:04:16;27.23;;;11.40;;
17384;SDS011;8810;48.680;8.894;2022-12-18T10:06:45;28.27;;;11.73;;
17384;SDS011;8810;48.680;8.894;2022-12-18T10:09:20;26.03;;;11.33;;
17384;SDS011;8810;48.680;8.894;2022-12-18T10:11:57;26.17;;;11.43;;
17384;SDS011;8810;48.680;8.894;2022-12-18T10:14:34;24.03;;;11.13;;
17384;SDS011;8810;48.680;8.894;2022-12-18T10:17:08;28.83;;;12.03;;
17384;SDS011;8810;48.680;8.894;2022-12-18T10:19:42;26.17;;;11.60;;
17384;SDS011;8810;48.680;8.894;2022-12-18T10:22:18;28.70;;;11.80;;
17384;SDS011;8810;48.680;8.894;2022-12-18T10:24:56;29.23;;;12.67;;
17384;SDS011;8810;48.680;8.894;2022-12-18T10:27:29;30.60;;;12.73;;
17384;SDS011;8810;48.680;8.894;2022-12-18T10:29:57;29.63;;;12.73;;
17384;SDS011;8810;48.680;8.894;2022-12-18T10:32:25;27.57;;;12.23;;
17384;SDS011;8810;48.680;8.894;2022-12-18T10:34:54;27.03;;;13.07;;
17384;SDS011;8810;48.680;8.894;2022-12-18T10:37:23;29.33;;;12.93;;
17384;SDS011;8810;48.680;8.894;2022-12-18T10:40:04;29.43;;;13.23;;
17384;SDS011;8810;48.680;8.894;2022-12-18T10:42:36;28.93;;;12.30;;
17384;SDS011;8810;48.680;8.894;2022-12-18T10:45:03;30.33;;;13.07;;
17384;SDS011;8810;48.680;8.894;2022-12-18T10:47:35;30.50;;;13.83;;
17384;SDS011;8810;48.680;8.894;2022-12-18T10:50:02;33.27;;;13.90;;
17384;SDS011;8810;48.680;8.894;2022-12-18T10:52:30;32.73;;;13.37;;
17384;SDS011;8810;48.680;8.894;2022-12-18T10:54:58;29.97;;;13.47;;
17384;SDS011;8810;48.680;8.894;2022-12-18T10:57:29;32.03;;;14.10;;
17384;SDS011;8810;48.680;8.894;2022-12-18T11:00:03;33.53;;;15.23;;
17384;SDS011;8810;48.680;8.894;2022-12-18T11:02:49;34.23;;;14.03;;
17384;SDS011;8810;48.680;8.894;2022-12-18T11:05:24;36.93;;;15.13;;
17384;SDS011;8810;48.680;8.894;2022-12-18T11:07:53;32.33;;;14.07;;
17384;SDS011;8810;48.680;8.894;2022-12-18T11:10:20;32.80;;;13.97;;
17384;SDS011;8810;48.680;8.894;2022-12-18T11:12:49;31.20;;;14.20;;
17384;SDS011;8810;48.680;8.894;2022-12-18T11:15:18;36.27;;;15.63;;
17384;SDS011;8810;48.680;8.894;2022-12-18T11:17:47;33.17;;;13.50;;
17384;SDS011;8810;48.680;8.894;2022-12-18T11:20:27;33.00;;;14.67;;
17384;SDS011;8810;48.680;8.894;2022-12-18T11:22:58;33.73;;;14.00;;
17384;SDS011;8810;48.680;8.894;2022-12-18T11:25:26;29.97;;;14.03;;
17384;SDS011;8810;48.680;8.894;2022-12-18T11:27:56;33.23;;;14.37;;
17384;SDS011;8810;48.680;8.894;2022-12-18T11:30:27;35.93;;;14.87;;
17384;SDS011;8810;48.680;8.894;2022-12-18T11:32:56;38.30;;;14.80;;
17384;SDS011;8810;48.680;8.894;2022-12-18T11:35:34;34.07;;;14.57;;
17384;SDS011;8810;48.680;8.894;2022-12-18T11:38:07;40.13;;;14.70;;
17384;SDS011;8810;48.680;8.894;2022-12-18T11:40:42;151.07;;;38.23;;
17384;SDS011;8810;48.680;8.894;2022-12-18T11:43:13;42.47;;;16.47;;
17384;SDS011;8810;48.680;8.894;2022-12-18T11:45:45;49.40;;;19.50;;
17384;SDS011;8810;48.680;8.894;2022-12-18T11:48:18;41.00;;;16.37;;
17384;SDS011;8810;48.680;8.894;2022-12-18T11:50:49;36.70;;;14.00;;
17384;SDS011;8810;48.680;8.894;2022-12-18T11:53:17;33.43;;;14.90;;
17384;SDS011;8810;48.680;8.894;2022-12-18T11:55:48;34.53;;;15.33;;
17384;SDS011;8810;48.680;8.894;2022-12-18T11:58:26;35.50;;;15.10;;
17384;SDS011;8810;48.680;8.894;2022-12-18T12:01:05;39.20;;;15.87;;
17384;SDS011;8810;48.680;8.894;2022-12-18T12:04:03;36.63;;;15.97;;
17384;SDS011;8810;48.680;8.894;2022-12-18T12:06:48;41.23;;;16.63;;
17384;SDS011;8810;48.680;8.894;2022-12-18T12:09:21;31.47;;;14.00;;
17384;SDS011;8810;48.680;8.894;2022-12-18T12:11:58;33.50;;;14.03;;
17384;SDS011;8810;48.680;8.894;2022-12-18T12:14:43;33.93;;;14.10;;
17384;SDS011;8810;48.680;8.894;2022-12-18T12:17:20;38.80;;;16.83;;
17384;SDS011;8810;48.680;8.894;2022-12-18T12:19:55;35.33;;;15.70;;
17384;SDS011;8810;48.680;8.894;2022-12-18T12:22:28;39.60;;;14.70;;
17384;SDS011;8810;48.680;8.894;2022-12-18T12:25:08;32.97;;;14.67;;
17384;SDS011;8810;48.680;8.894;2022-12-18T12:27:46;37.80;;;15.60;;
17384;SDS011;8810;48.680;8.894;2022-12-18T12:30:21;44.17;;;18.40;;
17384;SDS011;8810;48.680;8.894;2022-12-18T12:32:58;42.40;;;17.30;;
17384;SDS011;8810;48.680;8.894;2022-12-18T12:35:37;43.70;;;17.97;;
17384;SDS011;8810;48.680;8.894;2022-12-18T12:38:11;45.50;;;19.67;;
17384;SDS011;8810;48.680;8.894;2022-12-18T12:40:43;43.13;;;16.93;;
17384;SDS011;8810;48.680;8.894;2022-12-18T12:43:25;43.37;;;17.27;;
17384;SDS011;8810;48.680;8.894;2022-12-18T12:45:58;43.83;;;17.70;;
17384;SDS011;8810;48.680;8.894;2022-12-18T12:48:32;40.93;;;17.33;;
17384;SDS011;8810;48.680;8.894;2022-12-18T12:51:03;55.13;;;21.10;;
17384;SDS011;8810;48.680;8.894;2022-12-18T12:53:37;41.43;;;17.73;;
17384;SDS011;8810;48.680;8.894;2022-12-18T12:56:06;39.67;;;16.77;;
17384;SDS011;8810;48.680;8.894;2022-12-18T12:58:36;50.60;;;18.80;;
17384;SDS011;8810;48.680;8.894;2022-12-18T13:01:13;54.33;;;20.87;;
17384;SDS011;8810;48.680;8.894;2022-12-18T13:03:53;56.90;;;20.23;;
17384;SDS011;8810;48.680;8.894;2022-12-18T13:06:31;61.43;;;22.83;;
17384;SDS011;8810;48.680;8.894;2022-12-18T13:09:03;66.20;;;26.30;;
17384;SDS011;8810;48.680;8.894;2022-12-18T13:11:31;61.40;;;24.97;;
17384;SDS011;8810;48.680;8.894;2022-12-18T13:14:20;53.43;;;21.53;;
17384;SDS011;8810;48.680;8.894;2022-12-18T13:16:49;50.17;;;20.40;;
17384;SDS011;8810;48.680;8.894;2022-12-18T13:19:22;43.83;;;18.73;;
17384;SDS011;8810;48.680;8.894;2022-12-18T13:21:52;50.13;;;18.30;;
17384;SDS011;8810;48.680;8.894;2022-12-18T13:24:22;51.77;;;19.90;;
17384;SDS011;8810;48.680;8.894;2022-12-18T13:26:51;45.40;;;18.90;;
17384;SDS011;8810;48.680;8.894;2022-12-18T13:32:18;43.17;;;17.03;;
17384;SDS011;8810;48.680;8.894;2022-12-18T13:34:47;42.40;;;16.83;;
17384;SDS011;8810;48.680;8.894;2022-12-18T13:37:36;44.23;;;17.53;;
17384;SDS011;8810;48.680;8.894;2022-12-18T13:43:22;46.07;;;17.53;;
17384;SDS011;8810;48.680;8.894;2022-12-18T13:45:59;48.40;;;17.10;;
17384;SDS011;8810;48.680;8.894;2022-12-18T13:48:32;46.53;;;17.47;;
17384;SDS011;8810;48.680;8.894;2022-12-18T13:51:03;35.63;;;15.07;;
17384;SDS011;8810;48.680;8.894;2022-12-18T13:53:33;43.07;;;17.17;;
17384;SDS011;8810;48.680;8.894;2022-12-18T13:56:04;41.67;;;17.03;;
17384;SDS011;8810;48.680;8.894;2022-12-18T13:58:31;37.63;;;15.03;;
17384;SDS011;8810;48.680;8.894;2022-12-18T14:00:58;35.23;;;14.27;;
17384;SDS011;8810;48.680;8.894;2022-12-18T14:03:29;38.83;;;14.93;;
17384;SDS011;8810;48.680;8.894;2022-12-18T14:05:58;38.13;;;15.10;;
17384;SDS011;8810;48.680;8.894;2022-12-18T14:08:33;42.27;;;15.77;;
17384;SDS011;8810;48.680;8.894;2022-12-18T14:11:04;37.10;;;14.73;;
17384;SDS011;8810;48.680;8.894;2022-12-18T14:13:33;42.77;;;16.43;;
17384;SDS011;8810;48.680;8.894;2022-12-18T14:16:06;48.03;;;18.23;;
17384;SDS011;8810;48.680;8.894;2022-12-18T14:18:38;38.03;;;16.93;;
17384;SDS011;8810;48.680;8.894;2022-12-18T14:21:14;42.57;;;16.90;;
17384;SDS011;8810;48.680;8.894;2022-12-18T14:23:47;39.60;;;16.27;;
17384;SDS011;8810;48.680;8.894;2022-12-18T14:26:21;41.93;;;17.57;;
17384;SDS011;8810;48.680;8.894;2022-12-18T14:28:50;44.00;;;17.90;;
17384;SDS011;8810;48.680;8.894;2022-12-18T14:31:19;51.27;;;20.73;;
17384;SDS011;8810;48.680;8.894;2022-12-18T14:33:46;40.23;;;16.93;;
17384;SDS011;8810;48.680;8.894;2022-12-18T14:36:15;40.13;;;17.10;;
17384;SDS011;8810;48.680;8.894;2022-12-18T14:38:43;43.80;;;17.77;;
17384;SDS011;8810;48.680;8.894;2022-12-18T14:41:16;47.80;;;16.83;;
17384;SDS011;8810;48.680;8.894;2022-12-18T14:43:45;42.60;;;17.33;;
17384;SDS011;8810;48.680;8.894;2022-12-18T14:46:27;39.70;;;16.87;;
17384;SDS011;8810;48.680;8.894;2022-12-18T14:48:57;45.00;;;17.73;;
17384;SDS011;8810;48.680;8.894;2022-12-18T14:51:25;39.43;;;16.23;;
17384;SDS011;8810;48.680;8.894;2022-12-18T14:53:56;41.57;;;17.17;;
17384;SDS011;8810;48.680;8.894;2022-12-18T14:56:26;42.17;;;16.30;;
17384;SDS011;8810;48.680;8.894;2022-12-18T14:58:55;48.70;;;18.53;;
17384;SDS011;8810;48.680;8.894;2022-12-18T15:01:25;41.47;;;17.17;;
17384;SDS011;8810;48.680;8.894;2022-12-18T15:03:54;45.70;;;18.10;;
17384;SDS011;8810;48.680;8.894;2022-12-18T15:06:26;51.40;;;20.60;;